Rigolet, Canada
Current Conditions -  °F | °C
As of 4:00 PM on Sunday 28 Dec 2014 (Local Time) from CWCA Reporting Station
Overcast Overcast  
Wind Chill:   Ceiling: 7000
Heat Index: 18°   Visibility: 15mi
Dew Point:   Wind: 8mph
Humidity: 63%   Direction: 280°W
Pressure: 29.52"   Gusts: NA
Location:  54.17°N, 58.43°W
Report Text: CWCA 282000Z 28007KT 15SM FEW020 BKN070 OVC200 M08/M14 A2952 RMK SC2AS4CS2 SLP997
Loading
Personal Weather Stations






























Interactive Weather Map New forecast layout! Learn more

10-Day Weather Forecast

Advertisements
Track Severe Weather on mobile